sensor_id;sensor_type;location;lat;lon;timestamp;P1;durP1;ratioP1;P2;durP2;ratioP2
18796;SDS011;9526;52.612;13.300;2023-03-19T00:02:01;54.20;;;35.45;;
18796;SDS011;9526;52.612;13.300;2023-03-19T00:04:38;50.80;;;32.38;;
18796;SDS011;9526;52.612;13.300;2023-03-19T00:07:03;55.78;;;34.17;;
18796;SDS011;9526;52.612;13.300;2023-03-19T00:09:27;54.83;;;34.67;;
18796;SDS011;9526;52.612;13.300;2023-03-19T00:11:50;53.25;;;34.25;;
18796;SDS011;9526;52.612;13.300;2023-03-19T00:14:14;53.72;;;34.40;;
18796;SDS011;9526;52.612;13.300;2023-03-19T00:16:38;52.88;;;32.63;;
18796;SDS011;9526;52.612;13.300;2023-03-19T00:19:03;58.13;;;34.45;;
18796;SDS011;9526;52.612;13.300;2023-03-19T00:21:27;52.45;;;32.67;;
18796;SDS011;9526;52.612;13.300;2023-03-19T00:23:52;55.13;;;33.88;;
18796;SDS011;9526;52.612;13.300;2023-03-19T00:26:17;52.15;;;31.90;;
18796;SDS011;9526;52.612;13.300;2023-03-19T00:28:41;47.35;;;31.95;;
18796;SDS011;9526;52.612;13.300;2023-03-19T00:31:06;50.63;;;31.92;;
18796;SDS011;9526;52.612;13.300;2023-03-19T00:33:32;51.47;;;30.80;;
18796;SDS011;9526;52.612;13.300;2023-03-19T00:35:55;54.13;;;32.80;;
18796;SDS011;9526;52.612;13.300;2023-03-19T00:38:20;54.45;;;33.25;;
18796;SDS011;9526;52.612;13.300;2023-03-19T00:40:45;55.08;;;34.22;;
18796;SDS011;9526;52.612;13.300;2023-03-19T00:43:09;52.75;;;33.10;;
18796;SDS011;9526;52.612;13.300;2023-03-19T00:45:33;61.13;;;37.38;;
18796;SDS011;9526;52.612;13.300;2023-03-19T00:47:57;59.22;;;35.70;;
18796;SDS011;9526;52.612;13.300;2023-03-19T00:50:20;59.17;;;37.28;;
18796;SDS011;9526;52.612;13.300;2023-03-19T00:52:45;54.17;;;34.65;;
18796;SDS011;9526;52.612;13.300;2023-03-19T00:55:09;59.35;;;37.97;;
18796;SDS011;9526;52.612;13.300;2023-03-19T00:57:34;59.15;;;36.65;;
18796;SDS011;9526;52.612;13.300;2023-03-19T00:59:58;59.78;;;37.10;;
18796;SDS011;9526;52.612;13.300;2023-03-19T01:02:21;54.45;;;34.65;;
18796;SDS011;9526;52.612;13.300;2023-03-19T01:04:47;54.28;;;34.42;;
18796;SDS011;9526;52.612;13.300;2023-03-19T01:07:11;57.58;;;34.97;;
18796;SDS011;9526;52.612;13.300;2023-03-19T01:09:35;55.85;;;33.47;;
18796;SDS011;9526;52.612;13.300;2023-03-19T01:11:59;57.40;;;34.75;;
18796;SDS011;9526;52.612;13.300;2023-03-19T01:14:27;60.55;;;33.17;;
18796;SDS011;9526;52.612;13.300;2023-03-19T01:16:51;54.28;;;34.25;;
18796;SDS011;9526;52.612;13.300;2023-03-19T01:19:14;56.47;;;34.13;;
18796;SDS011;9526;52.612;13.300;2023-03-19T01:21:38;51.95;;;33.53;;
18796;SDS011;9526;52.612;13.300;2023-03-19T01:24:09;53.70;;;31.85;;
18796;SDS011;9526;52.612;13.300;2023-03-19T01:26:33;50.88;;;31.98;;
18796;SDS011;9526;52.612;13.300;2023-03-19T01:29:08;51.03;;;31.80;;
18796;SDS011;9526;52.612;13.300;2023-03-19T01:31:34;50.70;;;32.33;;
18796;SDS011;9526;52.612;13.300;2023-03-19T01:34:18;52.33;;;31.23;;
18796;SDS011;9526;52.612;13.300;2023-03-19T01:36:46;52.30;;;32.90;;
18796;SDS011;9526;52.612;13.300;2023-03-19T01:39:15;55.27;;;30.83;;
18796;SDS011;9526;52.612;13.300;2023-03-19T01:41:38;49.53;;;30.77;;
18796;SDS011;9526;52.612;13.300;2023-03-19T01:44:24;50.20;;;30.23;;
18796;SDS011;9526;52.612;13.300;2023-03-19T01:47:13;58.92;;;31.15;;
18796;SDS011;9526;52.612;13.300;2023-03-19T01:50:01;46.83;;;28.00;;
18796;SDS011;9526;52.612;13.300;2023-03-19T01:52:27;51.22;;;30.33;;
18796;SDS011;9526;52.612;13.300;2023-03-19T01:55:12;48.30;;;29.15;;
18796;SDS011;9526;52.612;13.300;2023-03-19T01:57:43;47.10;;;29.17;;
18796;SDS011;9526;52.612;13.300;2023-03-19T02:00:37;47.30;;;28.75;;
18796;SDS011;9526;52.612;13.300;2023-03-19T02:03:02;46.20;;;28.40;;
18796;SDS011;9526;52.612;13.300;2023-03-19T02:05:43;46.10;;;29.63;;
18796;SDS011;9526;52.612;13.300;2023-03-19T02:08:10;50.65;;;30.20;;
18796;SDS011;9526;52.612;13.300;2023-03-19T02:10:37;50.20;;;29.73;;
18796;SDS011;9526;52.612;13.300;2023-03-19T02:13:03;50.73;;;29.03;;
18796;SDS011;9526;52.612;13.300;2023-03-19T02:15:27;48.00;;;29.20;;
18796;SDS011;9526;52.612;13.300;2023-03-19T02:17:51;47.33;;;29.03;;
18796;SDS011;9526;52.612;13.300;2023-03-19T02:20:19;52.20;;;30.95;;
18796;SDS011;9526;52.612;13.300;2023-03-19T02:22:51;51.05;;;30.33;;
18796;SDS011;9526;52.612;13.300;2023-03-19T02:25:26;51.88;;;29.77;;
18796;SDS011;9526;52.612;13.300;2023-03-19T02:27:58;47.60;;;30.33;;
18796;SDS011;9526;52.612;13.300;2023-03-19T02:30:25;48.50;;;29.20;;
18796;SDS011;9526;52.612;13.300;2023-03-19T02:32:54;48.85;;;30.45;;
18796;SDS011;9526;52.612;13.300;2023-03-19T02:35:18;48.97;;;28.58;;
18796;SDS011;9526;52.612;13.300;2023-03-19T02:37:41;48.72;;;29.40;;
18796;SDS011;9526;52.612;13.300;2023-03-19T02:40:06;46.03;;;28.13;;
18796;SDS011;9526;52.612;13.300;2023-03-19T02:42:33;45.80;;;28.40;;
18796;SDS011;9526;52.612;13.300;2023-03-19T02:44:58;44.80;;;28.30;;
18796;SDS011;9526;52.612;13.300;2023-03-19T02:47:22;48.00;;;29.00;;
18796;SDS011;9526;52.612;13.300;2023-03-19T02:49:46;45.35;;;28.05;;
18796;SDS011;9526;52.612;13.300;2023-03-19T02:52:10;46.42;;;28.08;;
18796;SDS011;9526;52.612;13.300;2023-03-19T02:54:34;49.13;;;29.70;;
18796;SDS011;9526;52.612;13.300;2023-03-19T02:56:58;44.85;;;28.48;;
18796;SDS011;9526;52.612;13.300;2023-03-19T02:59:22;46.05;;;28.88;;
18796;SDS011;9526;52.612;13.300;2023-03-19T03:01:47;48.60;;;28.63;;
18796;SDS011;9526;52.612;13.300;2023-03-19T03:04:11;49.33;;;29.15;;
18796;SDS011;9526;52.612;13.300;2023-03-19T03:06:37;40.50;;;26.57;;
18796;SDS011;9526;52.612;13.300;2023-03-19T03:09:01;47.13;;;29.02;;
18796;SDS011;9526;52.612;13.300;2023-03-19T03:11:25;42.47;;;28.10;;
18796;SDS011;9526;52.612;13.300;2023-03-19T03:13:49;46.35;;;27.73;;
18796;SDS011;9526;52.612;13.300;2023-03-19T03:16:12;43.92;;;27.77;;
18796;SDS011;9526;52.612;13.300;2023-03-19T03:18:39;45.47;;;28.00;;
18796;SDS011;9526;52.612;13.300;2023-03-19T03:21:03;45.58;;;27.25;;
18796;SDS011;9526;52.612;13.300;2023-03-19T03:23:26;43.30;;;27.58;;
18796;SDS011;9526;52.612;13.300;2023-03-19T03:25:50;40.35;;;25.25;;
18796;SDS011;9526;52.612;13.300;2023-03-19T03:28:14;41.80;;;25.25;;
18796;SDS011;9526;52.612;13.300;2023-03-19T03:30:38;41.67;;;25.20;;
18796;SDS011;9526;52.612;13.300;2023-03-19T03:33:02;44.38;;;25.05;;
18796;SDS011;9526;52.612;13.300;2023-03-19T03:35:27;40.55;;;24.83;;
18796;SDS011;9526;52.612;13.300;2023-03-19T03:37:51;40.78;;;24.40;;
18796;SDS011;9526;52.612;13.300;2023-03-19T03:40:15;36.67;;;23.63;;
18796;SDS011;9526;52.612;13.300;2023-03-19T03:42:39;39.28;;;23.48;;
18796;SDS011;9526;52.612;13.300;2023-03-19T03:45:03;36.17;;;23.25;;
18796;SDS011;9526;52.612;13.300;2023-03-19T03:47:30;38.92;;;23.55;;
18796;SDS011;9526;52.612;13.300;2023-03-19T03:49:54;38.15;;;23.65;;
18796;SDS011;9526;52.612;13.300;2023-03-19T03:52:19;38.22;;;23.08;;
18796;SDS011;9526;52.612;13.300;2023-03-19T03:54:43;40.78;;;23.60;;
18796;SDS011;9526;52.612;13.300;2023-03-19T03:57:07;37.65;;;24.08;;
18796;SDS011;9526;52.612;13.300;2023-03-19T03:59:31;37.78;;;24.75;;
18796;SDS011;9526;52.612;13.300;2023-03-19T04:01:54;37.42;;;23.80;;
18796;SDS011;9526;52.612;13.300;2023-03-19T04:04:18;38.05;;;23.58;;
18796;SDS011;9526;52.612;13.300;2023-03-19T04:06:42;40.47;;;24.00;;
18796;SDS011;9526;52.612;13.300;2023-03-19T04:09:13;39.58;;;22.85;;
18796;SDS011;9526;52.612;13.300;2023-03-19T04:11:37;36.88;;;23.52;;
18796;SDS011;9526;52.612;13.300;2023-03-19T04:14:02;36.70;;;23.55;;
18796;SDS011;9526;52.612;13.300;2023-03-19T04:16:30;40.10;;;23.77;;
18796;SDS011;9526;52.612;13.300;2023-03-19T04:18:54;36.50;;;24.02;;
18796;SDS011;9526;52.612;13.300;2023-03-19T04:21:17;37.78;;;23.48;;
18796;SDS011;9526;52.612;13.300;2023-03-19T04:23:41;39.15;;;24.70;;
18796;SDS011;9526;52.612;13.300;2023-03-19T04:26:06;37.50;;;24.35;;
18796;SDS011;9526;52.612;13.300;2023-03-19T04:28:32;46.95;;;24.65;;
18796;SDS011;9526;52.612;13.300;2023-03-19T04:31:00;38.92;;;25.92;;
18796;SDS011;9526;52.612;13.300;2023-03-19T04:33:27;41.65;;;25.83;;
18796;SDS011;9526;52.612;13.300;2023-03-19T04:35:51;44.75;;;26.15;;
18796;SDS011;9526;52.612;13.300;2023-03-19T04:38:16;49.85;;;28.52;;
18796;SDS011;9526;52.612;13.300;2023-03-19T04:40:40;42.75;;;27.27;;
18796;SDS011;9526;52.612;13.300;2023-03-19T04:43:05;47.70;;;27.38;;
18796;SDS011;9526;52.612;13.300;2023-03-19T04:45:29;47.50;;;28.23;;
18796;SDS011;9526;52.612;13.300;2023-03-19T04:47:54;46.58;;;28.70;;
18796;SDS011;9526;52.612;13.300;2023-03-19T04:50:18;44.80;;;27.67;;
18796;SDS011;9526;52.612;13.300;2023-03-19T04:52:42;49.92;;;28.77;;
18796;SDS011;9526;52.612;13.300;2023-03-19T04:55:06;49.70;;;29.38;;
18796;SDS011;9526;52.612;13.300;2023-03-19T04:57:42;44.88;;;29.38;;
18796;SDS011;9526;52.612;13.300;2023-03-19T05:00:08;45.35;;;28.42;;
18796;SDS011;9526;52.612;13.300;2023-03-19T05:02:36;45.40;;;27.92;;
18796;SDS011;9526;52.612;13.300;2023-03-19T05:05:00;51.03;;;28.23;;
18796;SDS011;9526;52.612;13.300;2023-03-19T05:07:24;43.53;;;28.42;;
18796;SDS011;9526;52.612;13.300;2023-03-19T05:09:48;53.30;;;29.95;;
18796;SDS011;9526;52.612;13.300;2023-03-19T05:12:12;49.65;;;28.67;;
18796;SDS011;9526;52.612;13.300;2023-03-19T05:14:41;53.75;;;29.77;;
18796;SDS011;9526;52.612;13.300;2023-03-19T05:17:26;47.30;;;29.52;;
18796;SDS011;9526;52.612;13.300;2023-03-19T05:20:09;48.33;;;29.42;;
18796;SDS011;9526;52.612;13.300;2023-03-19T05:22:42;48.92;;;29.38;;
18796;SDS011;9526;52.612;13.300;2023-03-19T05:25:08;52.95;;;29.83;;
18796;SDS011;9526;52.612;13.300;2023-03-19T05:27:34;48.88;;;29.60;;
18796;SDS011;9526;52.612;13.300;2023-03-19T05:30:00;53.70;;;29.92;;
18796;SDS011;9526;52.612;13.300;2023-03-19T05:32:44;52.90;;;29.45;;
18796;SDS011;9526;52.612;13.300;2023-03-19T05:35:19;48.10;;;29.55;;
18796;SDS011;9526;52.612;13.300;2023-03-19T05:37:43;49.20;;;30.38;;
18796;SDS011;9526;52.612;13.300;2023-03-19T05:40:09;53.30;;;29.95;;
18796;SDS011;9526;52.612;13.300;2023-03-19T05:42:37;46.95;;;29.33;;
18796;SDS011;9526;52.612;13.300;2023-03-19T05:45:01;44.28;;;28.58;;
18796;SDS011;9526;52.612;13.300;2023-03-19T05:47:34;57.20;;;30.23;;
18796;SDS011;9526;52.612;13.300;2023-03-19T05:49:59;47.75;;;29.20;;
18796;SDS011;9526;52.612;13.300;2023-03-19T05:52:25;57.67;;;31.55;;
18796;SDS011;9526;52.612;13.300;2023-03-19T05:54:52;54.70;;;31.52;;
18796;SDS011;9526;52.612;13.300;2023-03-19T05:57:31;48.55;;;30.05;;
18796;SDS011;9526;52.612;13.300;2023-03-19T06:00:15;50.88;;;29.33;;
18796;SDS011;9526;52.612;13.300;2023-03-19T06:02:41;52.13;;;30.20;;
18796;SDS011;9526;52.612;13.300;2023-03-19T06:05:27;45.92;;;27.90;;
18796;SDS011;9526;52.612;13.300;2023-03-19T06:07:57;46.13;;;28.10;;
18796;SDS011;9526;52.612;13.300;2023-03-19T06:10:29;49.35;;;28.75;;
18796;SDS011;9526;52.612;13.300;2023-03-19T06:12:55;50.13;;;29.27;;
18796;SDS011;9526;52.612;13.300;2023-03-19T06:15:31;47.25;;;28.02;;
18796;SDS011;9526;52.612;13.300;2023-03-19T06:18:21;46.65;;;27.73;;
18796;SDS011;9526;52.612;13.300;2023-03-19T06:20:47;40.08;;;26.73;;
18796;SDS011;9526;52.612;13.300;2023-03-19T06:23:11;49.75;;;28.67;;
18796;SDS011;9526;52.612;13.300;2023-03-19T06:25:37;49.67;;;27.75;;
18796;SDS011;9526;52.612;13.300;2023-03-19T06:28:00;41.88;;;26.42;;
18796;SDS011;9526;52.612;13.300;2023-03-19T06:30:30;43.00;;;26.58;;
18796;SDS011;9526;52.612;13.300;2023-03-19T06:32:56;43.58;;;25.38;;
18796;SDS011;9526;52.612;13.300;2023-03-19T06:35:21;44.10;;;25.15;;
18796;SDS011;9526;52.612;13.300;2023-03-19T06:37:48;40.00;;;24.90;;
18796;SDS011;9526;52.612;13.300;2023-03-19T06:40:12;36.75;;;23.77;;
18796;SDS011;9526;52.612;13.300;2023-03-19T06:42:36;41.33;;;23.48;;
18796;SDS011;9526;52.612;13.300;2023-03-19T06:45:02;43.70;;;25.23;;
18796;SDS011;9526;52.612;13.300;2023-03-19T06:47:27;40.08;;;24.65;;
18796;SDS011;9526;52.612;13.300;2023-03-19T06:49:50;37.90;;;23.98;;
18796;SDS011;9526;52.612;13.300;2023-03-19T06:52:14;35.65;;;21.42;;
18796;SDS011;9526;52.612;13.300;2023-03-19T06:54:39;38.03;;;21.80;;
18796;SDS011;9526;52.612;13.300;2023-03-19T06:57:03;41.20;;;21.45;;
18796;SDS011;9526;52.612;13.300;2023-03-19T06:59:27;35.22;;;22.02;;
18796;SDS011;9526;52.612;13.300;2023-03-19T07:01:51;42.30;;;21.65;;
18796;SDS011;9526;52.612;13.300;2023-03-19T07:04:14;37.10;;;21.58;;
18796;SDS011;9526;52.612;13.300;2023-03-19T07:06:38;39.30;;;21.40;;
18796;SDS011;9526;52.612;13.300;2023-03-19T07:09:02;36.67;;;22.73;;
18796;SDS011;9526;52.612;13.300;2023-03-19T07:11:27;51.60;;;22.02;;
18796;SDS011;9526;52.612;13.300;2023-03-19T07:13:53;42.83;;;23.73;;
18796;SDS011;9526;52.612;13.300;2023-03-19T07:16:16;38.55;;;23.52;;
18796;SDS011;9526;52.612;13.300;2023-03-19T07:18:41;51.80;;;26.00;;
18796;SDS011;9526;52.612;13.300;2023-03-19T07:21:04;58.45;;;26.08;;
18796;SDS011;9526;52.612;13.300;2023-03-19T07:23:28;58.92;;;26.67;;
18796;SDS011;9526;52.612;13.300;2023-03-19T07:25:52;50.20;;;27.55;;
18796;SDS011;9526;52.612;13.300;2023-03-19T07:28:17;50.50;;;27.13;;
18796;SDS011;9526;52.612;13.300;2023-03-19T07:30:41;49.95;;;27.38;;
18796;SDS011;9526;52.612;13.300;2023-03-19T07:33:04;54.65;;;28.95;;
18796;SDS011;9526;52.612;13.300;2023-03-19T07:35:28;53.78;;;28.63;;
18796;SDS011;9526;52.612;13.300;2023-03-19T07:37:52;53.13;;;28.10;;
18796;SDS011;9526;52.612;13.300;2023-03-19T07:40:16;50.85;;;25.58;;
18796;SDS011;9526;52.612;13.300;2023-03-19T07:42:40;50.15;;;25.73;;
18796;SDS011;9526;52.612;13.300;2023-03-19T07:45:08;43.08;;;24.77;;
18796;SDS011;9526;52.612;13.300;2023-03-19T07:47:32;40.97;;;25.10;;
18796;SDS011;9526;52.612;13.300;2023-03-19T07:49:56;46.92;;;26.63;;
18796;SDS011;9526;52.612;13.300;2023-03-19T07:52:20;41.83;;;24.73;;
18796;SDS011;9526;52.612;13.300;2023-03-19T07:54:43;42.00;;;24.73;;
18796;SDS011;9526;52.612;13.300;2023-03-19T07:57:07;50.05;;;26.40;;
18796;SDS011;9526;52.612;13.300;2023-03-19T07:59:31;42.58;;;23.52;;
18796;SDS011;9526;52.612;13.300;2023-03-19T08:01:56;40.30;;;23.80;;
18796;SDS011;9526;52.612;13.300;2023-03-19T08:04:20;42.20;;;24.75;;
18796;SDS011;9526;52.612;13.300;2023-03-19T08:06:44;42.30;;;23.23;;
18796;SDS011;9526;52.612;13.300;2023-03-19T08:09:08;45.28;;;24.42;;
18796;SDS011;9526;52.612;13.300;2023-03-19T08:11:32;47.03;;;23.77;;
18796;SDS011;9526;52.612;13.300;2023-03-19T08:13:56;42.72;;;24.85;;
18796;SDS011;9526;52.612;13.300;2023-03-19T08:16:20;43.35;;;22.92;;
18796;SDS011;9526;52.612;13.300;2023-03-19T08:18:45;50.80;;;23.98;;
18796;SDS011;9526;52.612;13.300;2023-03-19T08:21:10;48.90;;;24.60;;
18796;SDS011;9526;52.612;13.300;2023-03-19T08:23:33;49.75;;;25.70;;
18796;SDS011;9526;52.612;13.300;2023-03-19T08:25:57;40.53;;;23.77;;
18796;SDS011;9526;52.612;13.300;2023-03-19T08:28:21;55.67;;;25.98;;
18796;SDS011;9526;52.612;13.300;2023-03-19T08:30:45;48.35;;;25.08;;
18796;SDS011;9526;52.612;13.300;2023-03-19T08:33:08;45.70;;;24.83;;
18796;SDS011;9526;52.612;13.300;2023-03-19T08:35:34;45.53;;;24.02;;
18796;SDS011;9526;52.612;13.300;2023-03-19T08:37:57;50.58;;;25.38;;
18796;SDS011;9526;52.612;13.300;2023-03-19T08:40:21;55.13;;;27.88;;
18796;SDS011;9526;52.612;13.300;2023-03-19T08:42:46;52.42;;;26.80;;
18796;SDS011;9526;52.612;13.300;2023-03-19T08:45:10;52.17;;;26.40;;
18796;SDS011;9526;52.612;13.300;2023-03-19T08:47:36;49.47;;;26.05;;
18796;SDS011;9526;52.612;13.300;2023-03-19T08:50:00;56.10;;;27.60;;
18796;SDS011;9526;52.612;13.300;2023-03-19T08:52:25;51.10;;;28.48;;
18796;SDS011;9526;52.612;13.300;2023-03-19T08:54:48;53.45;;;29.15;;
18796;SDS011;9526;52.612;13.300;2023-03-19T08:57:12;47.38;;;26.92;;
18796;SDS011;9526;52.612;13.300;2023-03-19T08:59:36;52.03;;;29.02;;
18796;SDS011;9526;52.612;13.300;2023-03-19T09:01:59;50.33;;;26.67;;
18796;SDS011;9526;52.612;13.300;2023-03-19T09:04:24;44.30;;;25.63;;
18796;SDS011;9526;52.612;13.300;2023-03-19T09:06:47;49.15;;;29.77;;
18796;SDS011;9526;52.612;13.300;2023-03-19T09:09:13;48.50;;;28.52;;
18796;SDS011;9526;52.612;13.300;2023-03-19T09:11:37;45.47;;;27.35;;
18796;SDS011;9526;52.612;13.300;2023-03-19T09:14:00;47.83;;;28.50;;
18796;SDS011;9526;52.612;13.300;2023-03-19T09:16:24;45.35;;;28.25;;
18796;SDS011;9526;52.612;13.300;2023-03-19T09:18:48;52.03;;;29.08;;
18796;SDS011;9526;52.612;13.300;2023-03-19T09:21:12;50.63;;;30.15;;
18796;SDS011;9526;52.612;13.300;2023-03-19T09:23:35;50.78;;;30.02;;
18796;SDS011;9526;52.612;13.300;2023-03-19T09:26:00;51.30;;;29.63;;
18796;SDS011;9526;52.612;13.300;2023-03-19T09:28:24;54.53;;;33.60;;
18796;SDS011;9526;52.612;13.300;2023-03-19T09:30:48;50.28;;;32.35;;
18796;SDS011;9526;52.612;13.300;2023-03-19T09:33:13;47.83;;;31.38;;
18796;SDS011;9526;52.612;13.300;2023-03-19T09:35:37;51.70;;;30.50;;
18796;SDS011;9526;52.612;13.300;2023-03-19T09:38:01;50.15;;;30.48;;
18796;SDS011;9526;52.612;13.300;2023-03-19T09:40:26;49.53;;;30.70;;
18796;SDS011;9526;52.612;13.300;2023-03-19T09:42:59;46.17;;;27.95;;
18796;SDS011;9526;52.612;13.300;2023-03-19T09:45:37;49.17;;;28.27;;
18796;SDS011;9526;52.612;13.300;2023-03-19T09:48:02;45.35;;;29.45;;
18796;SDS011;9526;52.612;13.300;2023-03-19T09:50:33;43.50;;;27.38;;
18796;SDS011;9526;52.612;13.300;2023-03-19T09:53:00;41.67;;;26.15;;
18796;SDS011;9526;52.612;13.300;2023-03-19T09:55:33;43.78;;;25.02;;
18796;SDS011;9526;52.612;13.300;2023-03-19T09:58:07;37.28;;;23.95;;
18796;SDS011;9526;52.612;13.300;2023-03-19T10:00:36;37.38;;;24.30;;
18796;SDS011;9526;52.612;13.300;2023-03-19T10:03:03;40.75;;;22.02;;
18796;SDS011;9526;52.612;13.300;2023-03-19T10:05:41;29.38;;;18.55;;
18796;SDS011;9526;52.612;13.300;2023-03-19T10:11:06;23.15;;;16.83;;
18796;SDS011;9526;52.612;13.300;2023-03-19T10:13:58;24.50;;;17.00;;
18796;SDS011;9526;52.612;13.300;2023-03-19T10:16:35;25.23;;;16.83;;
18796;SDS011;9526;52.612;13.300;2023-03-19T10:19:03;22.90;;;15.55;;
18796;SDS011;9526;52.612;13.300;2023-03-19T10:21:28;23.10;;;15.98;;
18796;SDS011;9526;52.612;13.300;2023-03-19T10:23:56;23.15;;;15.25;;
18796;SDS011;9526;52.612;13.300;2023-03-19T10:26:25;21.27;;;15.05;;
18796;SDS011;9526;52.612;13.300;2023-03-19T10:28:58;21.77;;;14.82;;
18796;SDS011;9526;52.612;13.300;2023-03-19T10:31:29;22.17;;;14.38;;
18796;SDS011;9526;52.612;13.300;2023-03-19T10:34:10;18.08;;;13.20;;
18796;SDS011;9526;52.612;13.300;2023-03-19T10:36:45;17.80;;;13.07;;
18796;SDS011;9526;52.612;13.300;2023-03-19T10:39:09;18.42;;;12.65;;
18796;SDS011;9526;52.612;13.300;2023-03-19T10:41:40;20.23;;;13.65;;
18796;SDS011;9526;52.612;13.300;2023-03-19T10:44:15;20.27;;;13.63;;
18796;SDS011;9526;52.612;13.300;2023-03-19T10:46:50;19.52;;;15.02;;
18796;SDS011;9526;52.612;13.300;2023-03-19T10:49:14;26.02;;;15.65;;
18796;SDS011;9526;52.612;13.300;2023-03-19T10:51:38;20.92;;;15.02;;
18796;SDS011;9526;52.612;13.300;2023-03-19T10:54:16;17.58;;;14.18;;
18796;SDS011;9526;52.612;13.300;2023-03-19T10:56:44;19.88;;;14.32;;
18796;SDS011;9526;52.612;13.300;2023-03-19T10:59:18;18.88;;;13.65;;
18796;SDS011;9526;52.612;13.300;2023-03-19T11:01:47;19.92;;;13.70;;
18796;SDS011;9526;52.612;13.300;2023-03-19T11:04:12;20.25;;;14.32;;
18796;SDS011;9526;52.612;13.300;2023-03-19T11:06:39;21.88;;;14.15;;
18796;SDS011;9526;52.612;13.300;2023-03-19T11:09:11;21.15;;;14.57;;
18796;SDS011;9526;52.612;13.300;2023-03-19T11:11:41;20.38;;;14.50;;
18796;SDS011;9526;52.612;13.300;2023-03-19T11:14:13;21.90;;;15.23;;
18796;SDS011;9526;52.612;13.300;2023-03-19T11:16:53;19.35;;;14.50;;
18796;SDS011;9526;52.612;13.300;2023-03-19T11:19:20;19.98;;;14.65;;
18796;SDS011;9526;52.612;13.300;2023-03-19T11:21:52;25.02;;;15.80;;
18796;SDS011;9526;52.612;13.300;2023-03-19T11:24:32;24.63;;;16.20;;
18796;SDS011;9526;52.612;13.300;2023-03-19T11:26:59;22.50;;;16.88;;
18796;SDS011;9526;52.612;13.300;2023-03-19T11:29:25;21.05;;;15.60;;
18796;SDS011;9526;52.612;13.300;2023-03-19T11:31:53;21.17;;;15.48;;
18796;SDS011;9526;52.612;13.300;2023-03-19T11:34:43;20.90;;;15.25;;
18796;SDS011;9526;52.612;13.300;2023-03-19T11:37:15;20.88;;;15.48;;
18796;SDS011;9526;52.612;13.300;2023-03-19T11:39:50;22.88;;;15.27;;
18796;SDS011;9526;52.612;13.300;2023-03-19T11:42:26;20.10;;;15.60;;
18796;SDS011;9526;52.612;13.300;2023-03-19T11:45:12;24.98;;;16.05;;
18796;SDS011;9526;52.612;13.300;2023-03-19T11:47:50;20.73;;;15.75;;
18796;SDS011;9526;52.612;13.300;2023-03-19T11:50:38;23.95;;;16.15;;
18796;SDS011;9526;52.612;13.300;2023-03-19T11:53:13;20.73;;;14.90;;
18796;SDS011;9526;52.612;13.300;2023-03-19T11:55:47;19.77;;;15.18;;
18796;SDS011;9526;52.612;13.300;2023-03-19T12:01:31;20.02;;;14.45;;
18796;SDS011;9526;52.612;13.300;2023-03-19T12:04:27;19.35;;;13.77;;
18796;SDS011;9526;52.612;13.300;2023-03-19T12:07:12;20.02;;;13.93;;
18796;SDS011;9526;52.612;13.300;2023-03-19T12:09:47;20.83;;;14.60;;
18796;SDS011;9526;52.612;13.300;2023-03-19T12:12:21;19.60;;;14.55;;
18796;SDS011;9526;52.612;13.300;2023-03-19T12:14:53;22.05;;;13.95;;
18796;SDS011;9526;52.612;13.300;2023-03-19T12:17:34;19.02;;;14.27;;
18796;SDS011;9526;52.612;13.300;2023-03-19T12:20:14;16.92;;;13.00;;
18796;SDS011;9526;52.612;13.300;2023-03-19T12:22:51;15.57;;;12.10;;
18796;SDS011;9526;52.612;13.300;2023-03-19T12:25:28;16.08;;;12.40;;
18796;SDS011;9526;52.612;13.300;2023-03-19T12:28:06;18.52;;;12.25;;
18796;SDS011;9526;52.612;13.300;2023-03-19T12:30:37;16.58;;;12.05;;
18796;SDS011;9526;52.612;13.300;2023-03-19T12:33:12;18.23;;;12.38;;
18796;SDS011;9526;52.612;13.300;2023-03-19T12:35:55;16.67;;;11.95;;
18796;SDS011;9526;52.612;13.300;2023-03-19T12:38:22;18.00;;;12.23;;
18796;SDS011;9526;52.612;13.300;2023-03-19T12:40:50;16.20;;;11.25;;
18796;SDS011;9526;52.612;13.300;2023-03-19T12:43:20;15.90;;;11.75;;
18796;SDS011;9526;52.612;13.300;2023-03-19T12:45:49;17.98;;;12.00;;
18796;SDS011;9526;52.612;13.300;2023-03-19T12:48:20;14.32;;;11.60;;
18796;SDS011;9526;52.612;13.300;2023-03-19T12:50:49;13.55;;;10.52;;
18796;SDS011;9526;52.612;13.300;2023-03-19T12:53:25;14.45;;;9.95;;
18796;SDS011;9526;52.612;13.300;2023-03-19T12:55:57;15.52;;;10.77;;
18796;SDS011;9526;52.612;13.300;2023-03-19T12:58:30;18.75;;;10.68;;
18796;SDS011;9526;52.612;13.300;2023-03-19T13:01:04;14.10;;;9.85;;
18796;SDS011;9526;52.612;13.300;2023-03-19T13:03:36;14.30;;;10.38;;
18796;SDS011;9526;52.612;13.300;2023-03-19T13:06:14;14.25;;;9.85;;
18796;SDS011;9526;52.612;13.300;2023-03-19T13:08:43;15.20;;;10.45;;
18796;SDS011;9526;52.612;13.300;2023-03-19T13:11:12;12.10;;;9.57;;
18796;SDS011;9526;52.612;13.300;2023-03-19T13:13:44;12.60;;;9.27;;
18796;SDS011;9526;52.612;13.300;2023-03-19T13:16:19;11.15;;;9.20;;
18796;SDS011;9526;52.612;13.300;2023-03-19T13:18:57;13.15;;;9.27;;
18796;SDS011;9526;52.612;13.300;2023-03-19T13:21:33;12.82;;;9.25;;
18796;SDS011;9526;52.612;13.300;2023-03-19T13:24:01;12.55;;;8.55;;
18796;SDS011;9526;52.612;13.300;2023-03-19T13:26:32;17.60;;;9.73;;
18796;SDS011;9526;52.612;13.300;2023-03-19T13:28:58;11.38;;;8.57;;
18796;SDS011;9526;52.612;13.300;2023-03-19T13:31:24;11.25;;;8.75;;
18796;SDS011;9526;52.612;13.300;2023-03-19T13:33:50;12.88;;;9.35;;
18796;SDS011;9526;52.612;13.300;2023-03-19T13:36:24;11.65;;;8.80;;
18796;SDS011;9526;52.612;13.300;2023-03-19T13:38:52;13.55;;;8.77;;
18796;SDS011;9526;52.612;13.300;2023-03-19T13:44:33;11.35;;;8.70;;
18796;SDS011;9526;52.612;13.300;2023-03-19T13:47:01;11.27;;;8.13;;
18796;SDS011;9526;52.612;13.300;2023-03-19T13:50:22;11.45;;;8.27;;
18796;SDS011;9526;52.612;13.300;2023-03-19T13:52:52;12.20;;;8.68;;
18796;SDS011;9526;52.612;13.300;2023-03-19T13:55:43;11.88;;;8.35;;
18796;SDS011;9526;52.612;13.300;2023-03-19T13:58:13;12.48;;;8.60;;
18796;SDS011;9526;52.612;13.300;2023-03-19T14:01:00;11.05;;;8.45;;
18796;SDS011;9526;52.612;13.300;2023-03-19T14:03:25;12.10;;;8.65;;
18796;SDS011;9526;52.612;13.300;2023-03-19T14:05:53;12.10;;;8.35;;
18796;SDS011;9526;52.612;13.300;2023-03-19T14:08:19;11.07;;;8.38;;
18796;SDS011;9526;52.612;13.300;2023-03-19T14:10:47;14.57;;;8.65;;
18796;SDS011;9526;52.612;13.300;2023-03-19T14:13:15;12.07;;;8.50;;
18796;SDS011;9526;52.612;13.300;2023-03-19T14:15:52;11.45;;;8.65;;
18796;SDS011;9526;52.612;13.300;2023-03-19T14:18:29;12.40;;;8.70;;
18796;SDS011;9526;52.612;13.300;2023-03-19T14:20:56;14.13;;;9.48;;
18796;SDS011;9526;52.612;13.300;2023-03-19T14:23:27;10.43;;;8.27;;
18796;SDS011;9526;52.612;13.300;2023-03-19T14:26:04;11.20;;;8.15;;
18796;SDS011;9526;52.612;13.300;2023-03-19T14:31:28;10.77;;;8.13;;
18796;SDS011;9526;52.612;13.300;2023-03-19T14:34:00;11.40;;;8.55;;
18796;SDS011;9526;52.612;13.300;2023-03-19T14:36:34;12.30;;;8.88;;
18796;SDS011;9526;52.612;13.300;2023-03-19T14:39:06;11.90;;;9.00;;
18796;SDS011;9526;52.612;13.300;2023-03-19T14:41:41;12.02;;;7.90;;
18796;SDS011;9526;52.612;13.300;2023-03-19T14:44:12;10.65;;;7.93;;